Terminal Aerodrome Forecast
Issued by NWS Charleston, WV

Current Version | Previous Version | Graphics & Text | Print | Product List | Glossary On
Versions: 1 2 3 4 5 6 7 8 9 10 11 12 13 14 15 16 17 18 19 20 21 22 23 24 25 26 27 28 29
000
FTUS41 KRLX 271100
TAFHTS
TAF
KHTS 271127Z 2712/2812 18006KT P6SM SCT040 BKN100
     FM271400 22008KT P6SM VCTS BKN050CB
     FM271600 24010G20KT 4SM +TSRA BKN040CB
     FM272100 26010G16KT P6SM BKN040
     FM280200 27007KT P6SM BKN035=

USA.gov is the U.S. government's official web portal to all federal, state and local government web resources and services.